Armavir, Russia

7:31 AM MSK on January 27, 2015 (GMT +0300)
Shpakovskoye | Change Station
CLOSE
Current Station
Airport
Location: Stavropol',
Elevation: 1483 ft
Nearby Weather Stations

Elev 1483 ft 45.12 °N, 42.08 °E | Updated 31 minutes ago

Patches of Fog
Patches Fog Mist
32 °F
Feels Like 32 °F
N
0
Wind Variable Wind from North

Today
High -- | Low -- °F
--% Chance of Precip.
Yesterday
High -- | Low -- °F
Precip. -- in
7:41 AM 5:15 PM
Waxing Crescent, 50% visible
Pressure 30.09 in
Visibility 1.6 miles
Clouds Scattered Clouds 1000 ft
Overcast 10000 ft
Dew Point 32 °F
Humidity 100%
Rainfall 0.00 in
Snow Depth Not available.
UV 0 out of 12
Pollen Not available.
Air Quality Not available.
Flu Activity Not available.
METAR URMT 270400Z 00000MPS 2500 BCFG BR SCT010 OVC100 00/M00 Q1019 NOSIG RMK QFE724 SC055

More Conditions Fewer Conditions

Pressure 30.09 in
Visibility 1.6 miles
Clouds Scattered Clouds 1000 ft
Overcast 10000 ft
Dew Point 32 °F
Humidity 100%
Rainfall 0.00 in
Snow Depth Not available.
UV 0 out of 12
Pollen Not available.
Air Quality Not available.
Flu Activity Not available.
METAR URMT 270400Z 00000MPS 2500 BCFG BR SCT010 OVC100 00/M00 Q1019 NOSIG RMK QFE724 SC055

More Conditions Fewer Conditions

10-Day Weather Forecast

Almanac

Astronomy

Jan. 27, 2015 Rise Set
Actual Time
Civil Twilight
Nautical Twilight
Astronomical Twilight
Moon
Length of Visible Light
Length of Day
Tomorrow will be .
, % of the Moon is Illuminated

Today's Extremes

Country Highs Country Lows

Community

WunderPhotos

Upload Photos

1,790,527 photos uploaded!

WunderBlogs® & News

Nearby

Air Quality

  Air Quality AQ Index Pollutant
Not available.

Snow Depth

Station Depth Elevation

Earthquake Activity

City Distance Mag. Time & Date
Minimum magnitude displayed is 2.5.

Coastal Water Temperatures

Place Temperature

Nearby Weather Stations